This is the latest recevied weather packets stored in our database for station/object KB1FFS. If no packets are shown the sender has not sent any weather packets the latest 10 day(s).
| Time | Temp. | Humidity | Pressure | Rain* | Wind** | Luminosity | Snow |
|---|---|---|---|---|---|---|---|
| 1777504971 | 17.22° C | 74% | 1013.3 hPa | 0 mm | - | 67 W/m² | - |
| 1777504668 | 17.22° C | 74% | 1013.8 hPa | 0 mm | - | 64 W/m² | - |
| 1777504365 | 17.22° C | 74% | 1014.2 hPa | 0 mm | - | 57 W/m² | - |
| 1777504064 | 17.22° C | 74% | 1014.6 hPa | 0 mm | - | 28 W/m² | - |
| 1777503761 | 17.22° C | 76% | 1014.6 hPa | 0 mm | - | 31 W/m² | - |
| 1777503458 | 17.22° C | 74% | 1014.3 hPa | 0 mm | - | 54 W/m² | - |
| 1777503153 | 17.22° C | 74% | 1014.2 hPa | 0 mm | - | 95 W/m² | - |
| 1777502851 | 17.22° C | 74% | 1014.3 hPa | 0 mm | - | 60 W/m² | - |
| 1777502548 | 17.22° C | 74% | 1015 hPa | 0 mm | - | 54 W/m² | - |
| 1777502246 | 17.22° C | 74% | 1015 hPa | 0 mm | - | 47 W/m² | - |
| 1777501943 | 17.22° C | 73% | 1015.3 hPa | 0 mm | - | 31 W/m² | - |
| 1777501640 | 17.22° C | 73% | 1015.3 hPa | 0 mm | - | 40 W/m² | - |
| 1777501336 | 17.22° C | 73% | 1015.3 hPa | 0 mm | - | 41 W/m² | - |
| 1777501034 | 17.22° C | 73% | 1015.4 hPa | 0 mm | - | 36 W/m² | - |
| 1777500732 | 17.22° C | 73% | 1015.2 hPa | 0 mm | - | 44 W/m² | - |
| 1777500429 | 17.22° C | 72% | 1015.1 hPa | 0 mm | - | 35 W/m² | - |
| 1777500124 | 17.22° C | 72% | 1015.2 hPa | 0 mm | - | 35 W/m² | - |
| 1777499821 | 17.22° C | 72% | 1015.2 hPa | 0 mm | - | 34 W/m² | - |
| 1777499517 | 17.78° C | 71% | 1014.9 hPa | 0 mm | - | 36 W/m² | - |
| 1777499216 | 17.78° C | 71% | 1014.8 hPa | 0 mm | - | 69 W/m² | - |
| 1777498912 | 17.78° C | 72% | 1014.6 hPa | 0 mm | - | 70 W/m² | - |
| 1777498609 | 17.78° C | 70% | 1014.8 hPa | 0 mm | - | 91 W/m² | - |
| 1777498304 | 18.33° C | 70% | 1014.7 hPa | 0 mm | - | 79 W/m² | - |
| 1777498003 | 18.33° C | 70% | 1014.4 hPa | 0 mm | - | 209 W/m² | - |
| 1777497699 | 18.33° C | 70% | 1013.8 hPa | 0 mm | - | 275 W/m² | - |
* Rain latest hour (hover to see other rain measurements)
** Current wind speed in m/s (hover to see current wind gust speed)